Pagina principale
METAR-TAF:

METAR-TAF

Aeroporti :

Grazzanise, Italia

latitudine: 41-03N, longitudine: 014-04E, altezza: 9 m

Osservazione

Il bollettino è stato emesso 41 minuti fa, alle 05:55 UTC
Temperature 16°C
Umidità 82%
Pressione 1006 hPa
Visibilità 10 km o più
Nubi sparse ad un'altezza di 2500 ft
Nuvoloso ad un'altezza di 4000 ft

METAR: LIRM 170555Z /////KT 9999 SCT025 BKN040 16/13 Q1006 RMK OVC VIS MIN 9999 WIND THR06 24016KT BLU

Ora: 07:36 (06:36 UTC)

Previsione

Il bollettino è stato emesso 1 ora e 36 minuti fa, alle 05:00 UTC
Previsione valida dal 17 alle 06 UTC al 17 alle 15 UTC
Vento 18 kt da ovest/sud-ovest
Visibilità 10 km o più
Nubi sparse ad un'altezza di 2000 ft
Nuvoloso ad un'altezza di 4000 ft
Temporaneamente
dal 17 alle 09 UTC al 17 alle 14 UTC
Vento 15 kt da ovest/nord-ovest con raffiche fino a 25 kt

TAF: LIRM 170500Z 1706/1715 25018KT 9999 SCT020 BKN040 TEMPO 1709/1714 29015G25KT

Osservazioni e previsioni meteorologiche di più di 4000 aeroporti (messaggi METAR e TAF).

Le stazioni disponibili sono rappresentate dai dischi gialli e rossi sulla carta.

Puntare il mouse per vedere il nome della stazione.

Clicca sopra per visualizzare le osservazioni e previsioni meteorologiche.

Per cambiare la mappa : fare clic sui pulsanti verdi con una croce nera per ingrandire, il pulsante verde con un trattino per diminuire, o sulla freccia verde per le mappe adiacenti.


METAR-TAF: